Portada
METAR-TAF:

METAR-TAF

Aeroports :

Cherokee County Airport

Canton, Geòrgia, Estats Units d'Amèrica

latitud: 34-18-38N, longitud: 084-25-26W, altitud: 372 m

Observació

L'informe es va fer fa 28 minuts, a les 16:30 UTC
Vent 4 kt del Est/Nord-Est
Temperatura 25°C
Humitat 44%
Pressió 1026 hPa
Visibilitat: 16.1 km
Cel ennuvolat a una alçada de 3500 ft
Cel ennuvolat a una alçada de 5500 ft

METAR: KCNI 011630Z AUTO 07004KT 10SM BKN035 BKN055 25/12 A3029 RMK AO2

Hora: 12:58 (16:58 UTC)


TAF: manca

Observacions i pronòstics meteorològics de més de 4000 aeroports (METAR i TAF).

Les estacions disponibles són els punts grocs i vermells al mapa.

Posi el ratolí al punt desitjat per veure el nom de l'estació.

Feu clic per veure les observacions i els pronòstics meteorològics.

Per canviar el mapa: feu clic els botons verds amb una creu de color negre per apropar; al botó verd amb un guió per allunyar la imatge; o en les fletxes verdes per a mapes adjacents.


METAR-TAF: